createdAt,value
2023-04-23T00:00:06.832Z,100160.37
2023-04-23T00:03:05.172Z,100159.08
2023-04-23T00:05:37.037Z,100154.38
2023-04-23T00:08:10.534Z,100149.09
2023-04-23T00:10:41.700Z,100146.65
2023-04-23T00:13:16.496Z,100143.46
2023-04-23T00:16:14.142Z,100141.51
2023-04-23T00:18:44.737Z,100137.46
2023-04-23T00:21:15.852Z,100134.41
2023-04-23T00:23:44.946Z,100135.80
2023-04-23T00:26:15.522Z,100135.50
2023-04-23T00:28:46.237Z,100129.92
2023-04-23T00:31:16.839Z,100127.30
2023-04-23T00:33:47.504Z,100125.83
2023-04-23T00:36:18.884Z,100121.71
2023-04-23T00:38:49.596Z,100121.80
2023-04-23T00:41:20.747Z,100122.58
2023-04-23T00:43:52.105Z,100115.80
2023-04-23T00:46:26.166Z,100110.70
2023-04-23T00:48:57.022Z,100110.07
2023-04-23T00:51:28.020Z,100107.86
2023-04-23T00:53:57.086Z,100103.65
2023-04-23T00:56:28.376Z,100105.25
2023-04-23T00:58:59.306Z,100101.50
2023-04-23T01:01:30.086Z,100098.92
2023-04-23T01:04:01.638Z,100101.77
2023-04-23T01:06:32.696Z,100103.09
2023-04-23T01:09:03.685Z,100102.94
2023-04-23T01:11:33.150Z,100099.23
2023-04-23T01:14:04.876Z,100099.25
2023-04-23T01:16:35.981Z,100097.83
2023-04-23T01:19:08.515Z,100098.33
2023-04-23T01:21:40.170Z,100094.46
2023-04-23T01:24:12.308Z,100093.52
2023-04-23T01:26:43.665Z,100094.62
2023-04-23T01:29:14.787Z,100092.40
2023-04-23T01:31:44.934Z,100091.23
2023-04-23T01:34:15.648Z,100090.19
2023-04-23T01:36:47.757Z,100089.97
2023-04-23T01:39:18.480Z,100089.02
2023-04-23T01:41:49.625Z,100086.34
2023-04-23T01:44:20.285Z,100083.93
2023-04-23T01:46:50.924Z,100083.02
2023-04-23T01:49:21.703Z,100085.29
2023-04-23T01:51:52.357Z,100086.40
2023-04-23T01:54:23.014Z,100087.17
2023-04-23T01:56:53.743Z,100085.13
2023-04-23T01:59:24.612Z,100085.55
2023-04-23T02:01:55.269Z,100079.00
2023-04-23T02:04:26.261Z,100078.14
2023-04-23T02:06:55.475Z,100078.98
2023-04-23T02:09:26.151Z,100077.14
2023-04-23T02:11:56.741Z,100076.03
2023-04-23T02:14:27.474Z,100073.88
2023-04-23T02:16:58.126Z,100069.99
2023-04-23T02:19:28.852Z,100067.20
2023-04-23T02:21:59.557Z,100064.11
2023-04-23T02:24:30.761Z,100063.50
2023-04-23T02:27:01.384Z,100065.64
2023-04-23T02:29:32.237Z,100065.15
2023-04-23T02:32:02.986Z,100063.95
2023-04-23T02:34:33.994Z,100065.19
2023-04-23T02:37:03.064Z,100063.81
2023-04-23T02:39:34.367Z,100061.19
2023-04-23T02:42:05.235Z,100065.14
2023-04-23T02:44:35.983Z,100063.02
2023-04-23T02:47:07.019Z,100064.58
2023-04-23T02:49:37.780Z,100061.60
2023-04-23T02:52:08.516Z,100062.14
2023-04-23T02:54:39.310Z,100059.92
2023-04-23T02:57:10.270Z,100060.03
2023-04-23T02:59:40.947Z,100058.89
2023-04-23T03:02:11.680Z,100060.84
2023-04-23T03:04:42.639Z,100056.59
2023-04-23T03:07:13.515Z,100050.52
2023-04-23T03:09:44.145Z,100050.58
2023-04-23T03:12:14.766Z,100049.65
2023-04-23T03:14:45.497Z,100048.88
2023-04-23T03:17:24.883Z,100046.36
2023-04-23T03:19:56.239Z,100043.34
2023-04-23T03:22:26.882Z,100041.45
2023-04-23T03:25:17.524Z,100041.16
2023-04-23T03:27:51.340Z,100040.15
2023-04-23T03:30:22.218Z,100040.58
2023-04-23T03:32:53.195Z,100034.23
2023-04-23T03:35:23.099Z,100033.02
2023-04-23T03:37:54.131Z,100029.12
2023-04-23T03:40:23.223Z,100029.66
2023-04-23T03:42:53.847Z,100029.23
2023-04-23T03:45:24.921Z,100026.54
2023-04-23T03:47:55.970Z,100023.48
2023-04-23T03:50:26.675Z,100017.86
2023-04-23T03:52:57.828Z,100016.62
2023-04-23T03:55:35.498Z,100017.16
2023-04-23T03:58:06.162Z,100016.40
2023-04-23T04:00:37.084Z,100013.63
2023-04-23T04:03:08.096Z,100007.30
2023-04-23T04:05:38.823Z,99999.34
2023-04-23T04:08:09.583Z,100001.84
2023-04-23T04:10:40.310Z,100001.02
2023-04-23T04:13:10.956Z,100002.38
2023-04-23T04:15:41.639Z,100002.77
2023-04-23T04:18:12.270Z,100003.42
2023-04-23T04:20:42.960Z,100003.48
2023-04-23T04:23:13.733Z,100001.05
2023-04-23T04:25:44.325Z,100001.53
2023-04-23T04:28:15.468Z,99996.67
2023-04-23T04:30:46.217Z,99997.98
2023-04-23T04:33:51.031Z,99997.93
2023-04-23T04:36:21.744Z,100001.95
2023-04-23T04:38:52.407Z,99995.26
2023-04-23T04:41:23.092Z,99999.36
2023-04-23T04:43:56.031Z,99994.17
2023-04-23T04:46:27.042Z,99991.62
2023-04-23T04:48:57.788Z,99992.88
2023-04-23T04:51:28.859Z,100001.81
2023-04-23T04:53:59.475Z,100003.20
2023-04-23T04:56:28.521Z,100002.17
2023-04-23T04:58:59.144Z,100005.36
2023-04-23T05:01:28.575Z,100004.06
2023-04-23T05:04:02.315Z,100004.45
2023-04-23T05:06:33.699Z,100007.63
2023-04-23T05:09:04.522Z,100009.25
2023-04-23T05:11:35.381Z,100012.02
2023-04-23T05:14:04.457Z,100010.17
2023-04-23T05:16:36.750Z,100007.04
2023-04-23T05:19:07.385Z,100012.08
2023-04-23T05:21:38.085Z,100011.70
2023-04-23T05:24:07.258Z,100009.52
2023-04-23T05:26:40.219Z,100004.21
2023-04-23T05:29:10.900Z,99999.59
2023-04-23T05:31:42.053Z,99995.69
2023-04-23T05:34:12.666Z,99995.95
2023-04-23T05:36:43.393Z,100006.80
2023-04-23T05:39:14.113Z,100013.58
2023-04-23T05:41:45.427Z,100018.78
2023-04-23T05:44:17.254Z,100014.70
2023-04-23T05:46:47.913Z,100008.52
2023-04-23T05:49:18.589Z,100006.96
2023-04-23T05:51:49.643Z,100006.56
2023-04-23T05:54:20.756Z,100006.89
2023-04-23T05:56:52.838Z,100012.05
2023-04-23T05:59:25.764Z,100012.31
2023-04-23T06:01:56.540Z,100009.27
2023-04-23T06:04:27.683Z,100005.29
2023-04-23T06:06:58.805Z,100003.91
2023-04-23T06:09:29.389Z,100003.86
2023-04-23T06:12:00.177Z,100001.30
2023-04-23T06:14:30.929Z,99998.35
2023-04-23T06:17:01.553Z,99993.00
2023-04-23T06:19:34.813Z,99991.69
2023-04-23T06:22:05.569Z,99991.16
2023-04-23T06:24:36.831Z,99988.84
2023-04-23T06:27:07.513Z,99985.52
2023-04-23T06:29:38.438Z,99985.15
2023-04-23T06:32:09.215Z,99983.56
2023-04-23T06:34:46.776Z,99985.16
2023-04-23T06:37:24.260Z,99986.06
2023-04-23T06:39:55.240Z,99984.38
2023-04-23T06:42:25.932Z,99982.06
2023-04-23T06:44:56.933Z,99978.81
2023-04-23T06:47:27.693Z,99980.41
2023-04-23T06:49:58.617Z,99976.85
2023-04-23T06:52:29.309Z,99975.07
2023-04-23T06:54:59.900Z,99973.61
2023-04-23T06:57:30.745Z,99972.14
2023-04-23T06:59:59.745Z,99963.59
2023-04-23T07:02:30.501Z,99961.86
2023-04-23T07:04:59.788Z,99962.79
2023-04-23T07:07:30.592Z,99962.92
2023-04-23T07:10:01.250Z,99959.83
2023-04-23T07:12:31.922Z,99959.25
2023-04-23T07:15:02.735Z,99960.63
2023-04-23T07:17:31.997Z,99955.55
2023-04-23T07:20:02.668Z,99954.33
2023-04-23T07:22:45.369Z,99951.91
2023-04-23T07:25:16.112Z,99947.52
2023-04-23T07:27:45.382Z,99947.77
2023-04-23T07:30:16.583Z,99946.38
2023-04-23T07:32:47.354Z,99945.45
2023-04-23T07:35:16.611Z,99940.82
2023-04-23T07:37:47.374Z,99945.15
2023-04-23T07:40:18.184Z,99941.19
2023-04-23T07:42:47.265Z,99942.35
2023-04-23T07:45:18.113Z,99936.13
2023-04-23T07:47:47.822Z,99934.56
2023-04-23T07:50:18.781Z,99935.59
2023-04-23T07:52:51.947Z,99933.20
2023-04-23T07:55:21.071Z,99932.45
2023-04-23T07:57:51.710Z,99930.35
2023-04-23T08:00:22.464Z,99931.42
2023-04-23T08:02:53.124Z,99921.10
2023-04-23T08:05:24.387Z,99913.60
2023-04-23T08:07:55.078Z,99914.31
2023-04-23T08:10:26.029Z,99906.61
2023-04-23T08:12:55.660Z,99907.21
2023-04-23T08:15:26.507Z,99902.94
2023-04-23T08:17:57.268Z,99903.58
2023-04-23T08:20:26.623Z,99900.30
2023-04-23T08:22:57.272Z,99898.98
2023-04-23T08:25:28.135Z,99902.73
2023-04-23T08:27:58.759Z,99903.61
2023-04-23T08:30:29.817Z,99908.92
2023-04-23T08:33:00.535Z,99900.76
2023-04-23T08:35:31.285Z,99898.73
2023-04-23T08:38:02.026Z,99891.50
2023-04-23T08:40:31.918Z,99895.04
2023-04-23T08:43:08.674Z,99893.96
2023-04-23T08:45:42.229Z,99890.52
2023-04-23T08:48:13.793Z,99882.23
2023-04-23T08:50:45.901Z,99885.51
2023-04-23T08:53:19.504Z,99886.80
2023-04-23T08:55:51.596Z,99889.45
2023-04-23T08:58:23.639Z,99893.81
2023-04-23T09:00:55.630Z,99895.94
2023-04-23T09:03:26.836Z,99886.60
2023-04-23T09:05:57.893Z,99889.16
2023-04-23T09:08:29.127Z,99885.89
2023-04-23T09:11:01.794Z,99886.83
2023-04-23T09:13:33.882Z,99885.27
2023-04-23T09:16:06.569Z,99886.40
2023-04-23T09:18:37.565Z,99885.27
2023-04-23T09:21:08.814Z,99889.98
2023-04-23T09:23:41.404Z,99889.23
2023-04-23T09:26:19.401Z,99883.91
2023-04-23T09:28:50.603Z,99880.56
2023-04-23T09:31:24.844Z,99882.59
2023-04-23T09:33:55.748Z,99883.10
2023-04-23T09:36:26.431Z,99884.02
2023-04-23T09:39:00.358Z,99881.63
2023-04-23T09:41:31.027Z,99891.95
2023-04-23T09:44:02.501Z,99892.71
2023-04-23T09:46:37.754Z,99891.55
2023-04-23T09:49:09.507Z,99890.33
2023-04-23T09:51:41.194Z,99889.80
2023-04-23T09:54:16.226Z,99883.54
2023-04-23T09:56:51.251Z,99881.42
2023-04-23T09:59:46.787Z,99876.22
2023-04-23T10:02:17.545Z,99879.04
2023-04-23T10:04:52.321Z,99878.55
2023-04-23T10:07:25.789Z,99870.28
2023-04-23T10:09:56.457Z,99866.19
2023-04-23T10:12:46.175Z,99865.41
2023-04-23T10:15:18.694Z,99864.63
2023-04-23T10:17:50.647Z,99860.02
2023-04-23T10:20:23.064Z,99862.38
2023-04-23T10:22:55.291Z,99860.79
2023-04-23T10:25:26.153Z,99862.54
2023-04-23T10:27:58.469Z,99862.76
2023-04-23T10:30:30.019Z,99860.40
2023-04-23T10:33:02.693Z,99859.96
2023-04-23T10:35:34.556Z,99861.30
2023-04-23T10:38:05.455Z,99863.29
2023-04-23T10:40:41.328Z,99868.00
2023-04-23T10:43:12.216Z,99866.12
2023-04-23T10:45:43.656Z,99862.66
2023-04-23T10:48:14.404Z,99862.30
2023-04-23T10:51:04.740Z,99854.14
2023-04-23T10:53:35.959Z,99862.63
2023-04-23T10:56:10.590Z,99860.79
2023-04-23T10:58:53.573Z,99866.58
2023-04-23T11:15:34.193Z,99868.41
2023-04-23T11:18:05.307Z,99869.10
2023-04-23T11:20:37.470Z,99872.06
2023-04-23T11:23:08.522Z,99874.39
2023-04-23T11:25:42.083Z,99875.44
2023-04-23T11:28:13.014Z,99873.65
2023-04-23T11:30:43.719Z,99876.30
2023-04-23T11:33:14.450Z,99877.60
2023-04-23T11:35:45.256Z,99877.00
2023-04-23T11:38:15.924Z,99879.23
2023-04-23T11:40:51.536Z,99880.64
2023-04-23T11:43:22.122Z,99882.66
2023-04-23T11:45:51.264Z,99886.23
2023-04-23T11:48:21.954Z,99884.61
2023-04-23T11:50:52.489Z,99887.80
2023-04-23T11:53:23.652Z,99893.66
2023-04-23T11:55:55.305Z,99892.98
2023-04-23T11:58:25.955Z,99891.14
2023-04-23T12:00:58.933Z,99893.73
2023-04-23T12:03:29.734Z,99891.13
2023-04-23T12:06:00.573Z,99895.73
2023-04-23T12:08:34.593Z,99893.05
2023-04-23T12:11:05.686Z,99894.17
2023-04-23T12:13:39.683Z,99896.45
2023-04-23T12:16:11.210Z,99894.53
2023-04-23T12:18:43.241Z,99896.87
2023-04-23T12:21:14.775Z,99896.93
2023-04-23T12:23:45.656Z,99897.43
2023-04-23T12:26:19.088Z,99902.11
2023-04-23T12:28:51.420Z,99903.43
2023-04-23T12:31:22.755Z,99900.19
2023-04-23T12:34:02.080Z,99902.98
2023-04-23T12:36:33.669Z,99904.25
2023-04-23T12:39:25.414Z,99900.08
2023-04-23T12:41:57.438Z,99896.33
2023-04-23T12:44:28.617Z,99899.31
2023-04-23T12:47:01.293Z,99897.80
2023-04-23T12:49:33.786Z,99901.80
2023-04-23T12:52:06.236Z,99901.19
2023-04-23T12:54:38.683Z,99899.60
2023-04-23T12:57:12.298Z,99898.58
2023-04-23T12:59:43.165Z,99898.70
2023-04-23T13:02:14.222Z,99905.91
2023-04-23T13:04:44.853Z,99904.46
2023-04-23T13:07:13.958Z,99895.90
2023-04-23T13:09:44.865Z,99900.19
2023-04-23T13:12:15.828Z,99894.75
2023-04-23T13:14:46.819Z,99894.34
2023-04-23T13:17:17.552Z,99889.02
2023-04-23T13:19:48.164Z,99886.64
2023-04-23T13:22:18.778Z,99883.91
2023-04-23T13:24:49.569Z,99886.15
2023-04-23T13:27:20.226Z,99884.44
2023-04-23T13:29:50.879Z,99884.04
2023-04-23T13:32:22.720Z,99883.15
2023-04-23T13:34:53.500Z,99883.15
2023-04-23T13:37:24.217Z,99885.11
2023-04-23T13:39:54.953Z,99882.53
2023-04-23T13:42:25.641Z,99881.14
2023-04-23T13:44:56.291Z,99876.24
2023-04-23T13:47:27.085Z,99876.97
2023-04-23T13:49:58.290Z,99875.33
2023-04-23T13:52:28.998Z,99876.48
2023-04-23T13:54:59.789Z,99877.56
2023-04-23T13:57:30.441Z,99872.41
2023-04-23T14:00:01.145Z,99877.61
2023-04-23T14:02:31.918Z,99875.56
2023-04-23T14:05:02.658Z,99871.98
2023-04-23T14:07:33.526Z,99878.29
2023-04-23T14:10:04.593Z,99883.85
2023-04-23T14:12:35.346Z,99882.80
2023-04-23T14:15:07.817Z,99883.36
2023-04-23T14:17:39.545Z,99879.52
2023-04-23T14:20:10.997Z,99886.23
2023-04-23T14:22:41.974Z,99883.29
2023-04-23T14:25:24.244Z,99882.25
2023-04-23T14:28:02.287Z,99879.97
2023-04-23T14:30:34.434Z,99876.11
2023-04-23T14:33:05.247Z,99880.14
2023-04-23T14:38:12.510Z,99879.91
2023-04-23T14:40:43.168Z,99878.70
2023-04-23T14:43:15.818Z,99873.86
2023-04-23T14:45:47.208Z,99873.86
2023-04-23T14:48:17.982Z,99873.86
2023-04-23T14:50:47.037Z,99877.69
2023-04-23T14:53:18.787Z,99875.18
2023-04-23T14:55:49.372Z,99873.43
2023-04-23T14:58:20.104Z,99877.02
2023-04-23T15:00:49.168Z,99876.39
2023-04-23T15:03:20.042Z,99876.20
2023-04-23T15:05:50.813Z,99873.89
2023-04-23T15:08:19.897Z,99866.80
2023-04-23T15:10:50.514Z,99870.48
2023-04-23T15:13:36.493Z,99867.59
2023-04-23T15:16:26.290Z,99871.89
2023-04-23T15:19:07.497Z,99874.44
2023-04-23T15:21:38.652Z,99875.01
2023-04-23T15:24:09.491Z,99874.34
2023-04-23T15:26:38.513Z,99880.23
2023-04-23T15:29:09.485Z,99876.20
2023-04-23T15:31:40.434Z,99873.27
2023-04-23T15:34:11.278Z,99875.59
2023-04-23T15:36:41.950Z,99871.20
2023-04-23T15:39:11.058Z,99873.64
2023-04-23T15:41:43.045Z,99870.66
2023-04-23T15:44:15.540Z,99868.50
2023-04-23T15:46:44.580Z,99865.91
2023-04-23T15:49:15.199Z,99861.05
2023-04-23T15:51:46.099Z,99860.52
2023-04-23T15:54:16.714Z,99859.67
2023-04-23T15:56:47.464Z,99854.99
2023-04-23T15:59:16.700Z,99856.91
2023-04-23T16:01:47.881Z,99855.77
2023-04-23T16:04:18.717Z,99856.09
2023-04-23T16:06:49.646Z,99855.57
2023-04-23T16:09:18.719Z,99851.42
2023-04-23T16:11:49.467Z,99848.29
2023-04-23T16:14:18.517Z,99850.52
2023-04-23T16:16:49.325Z,99851.39
2023-04-23T16:19:20.570Z,99854.14
2023-04-23T16:21:51.285Z,99851.46
2023-04-23T16:24:21.985Z,99853.84
2023-04-23T16:26:51.118Z,99852.38
2023-04-23T16:29:24.431Z,99848.48
2023-04-23T16:31:55.149Z,99847.70
2023-04-23T16:34:25.764Z,99849.52
2023-04-23T16:37:25.896Z,99849.72
2023-04-23T16:39:46.490Z,99844.67
2023-04-23T16:42:15.614Z,99850.36
2023-04-23T16:44:46.736Z,99849.36
2023-04-23T16:47:19.053Z,99851.25
2023-04-23T16:49:50.012Z,99848.58
2023-04-23T16:52:20.776Z,99848.08
2023-04-23T16:54:51.797Z,99852.67
2023-04-23T16:57:22.920Z,99850.42
2023-04-23T16:59:56.195Z,99848.35
2023-04-23T17:02:29.440Z,99847.93
2023-04-23T17:05:00.324Z,99849.32
2023-04-23T17:07:30.991Z,99847.64
2023-04-23T17:10:00.259Z,99841.17
2023-04-23T17:12:41.115Z,99841.69
2023-04-23T17:15:12.816Z,99840.25
2023-04-23T17:17:45.890Z,99835.36
2023-04-23T17:20:17.575Z,99839.31
2023-04-23T17:22:48.291Z,99833.91
2023-04-23T17:25:19.114Z,99839.83
2023-04-23T17:27:48.148Z,99838.24
2023-04-23T17:30:18.914Z,99836.88
2023-04-23T17:32:48.046Z,99836.20
2023-04-23T17:35:23.973Z,99834.04
2023-04-23T17:37:54.687Z,99830.70
2023-04-23T17:40:32.229Z,99828.45
2023-04-23T17:43:03.204Z,99826.44
2023-04-23T17:45:35.310Z,99821.59
2023-04-23T17:48:05.278Z,99820.52
2023-04-23T17:50:36.750Z,99825.01
2023-04-23T17:53:07.602Z,99823.92
2023-04-23T17:55:40.560Z,99822.46
2023-04-23T17:58:11.212Z,99829.54
2023-04-23T18:00:44.401Z,99838.59
2023-04-23T18:03:14.741Z,99847.86
2023-04-23T18:05:45.557Z,99859.76
2023-04-23T18:08:14.599Z,99866.33
2023-04-23T18:10:45.565Z,99867.39
2023-04-23T18:13:16.453Z,99863.91
2023-04-23T18:15:45.629Z,99864.83
2023-04-23T18:18:16.374Z,99863.54
2023-04-23T18:20:47.290Z,99855.73
2023-04-23T18:23:20.622Z,99858.95
2023-04-23T18:25:51.503Z,99857.79
2023-04-23T18:28:23.576Z,99857.33
2023-04-23T18:30:54.483Z,99858.05
2023-04-23T18:33:30.684Z,99858.05
2023-04-23T18:36:05.500Z,99852.50
2023-04-23T18:38:43.881Z,99853.68
2023-04-23T18:41:15.838Z,99854.29
2023-04-23T18:43:46.519Z,99853.43
2023-04-23T18:46:17.371Z,99854.13
2023-04-23T18:48:50.780Z,99854.91
2023-04-23T18:51:36.924Z,99851.16
2023-04-23T18:54:07.609Z,99841.94
2023-04-23T18:57:03.490Z,99840.59
2023-04-23T18:59:34.178Z,99840.59
2023-04-23T19:02:05.525Z,99838.36
2023-04-23T19:04:57.023Z,99843.66
2023-04-23T19:07:27.802Z,99844.20
2023-04-23T19:09:58.448Z,99844.20
2023-04-23T19:12:29.535Z,99837.00
2023-04-23T19:15:00.172Z,99841.29
2023-04-23T19:17:30.958Z,99844.32
2023-04-23T19:20:00.175Z,99844.46
2023-04-23T19:22:30.868Z,99845.05
2023-04-23T19:25:01.504Z,99845.48
2023-04-23T19:27:32.479Z,99844.71
2023-04-23T19:30:06.792Z,99844.21
2023-04-23T19:32:40.771Z,99845.14
2023-04-23T19:35:11.493Z,99841.30
2023-04-23T19:37:42.208Z,99843.39
2023-04-23T19:40:13.634Z,99844.70
2023-04-23T19:42:44.473Z,99845.68
2023-04-23T19:45:18.173Z,99845.83
2023-04-23T19:47:48.971Z,99851.27
2023-04-23T19:50:23.743Z,99849.94
2023-04-23T19:52:54.491Z,99841.09
2023-04-23T19:55:28.636Z,99841.71
2023-04-23T19:57:59.387Z,99841.77
2023-04-23T20:00:30.066Z,99839.26
2023-04-23T20:03:01.056Z,99832.05
2023-04-23T20:05:36.442Z,99837.46
2023-04-23T20:08:10.399Z,99834.85
2023-04-23T20:10:41.131Z,99835.96
2023-04-23T20:13:14.474Z,99838.23
2023-04-23T20:15:45.437Z,99840.28
2023-04-23T20:18:17.128Z,99845.73
2023-04-23T20:20:47.753Z,99843.23
2023-04-23T20:23:18.501Z,99840.59
2023-04-23T20:25:51.382Z,99839.45
2023-04-23T20:28:55.007Z,99839.38
2023-04-23T20:31:23.494Z,99830.53
2023-04-23T20:33:54.190Z,99827.84
2023-04-23T20:36:25.861Z,99824.81
2023-04-23T20:38:56.660Z,99821.11
2023-04-23T20:41:30.319Z,99825.44
2023-04-23T20:44:01.294Z,99821.70
2023-04-23T20:46:32.935Z,99816.20
2023-04-23T20:49:06.140Z,99813.35
2023-04-23T20:51:36.849Z,99809.59
2023-04-23T20:54:07.741Z,99801.91
2023-04-23T20:56:36.816Z,99797.08
2023-04-23T20:59:07.535Z,99794.14
2023-04-23T21:01:38.646Z,99790.41
2023-04-23T21:04:09.987Z,99783.80
2023-04-23T21:06:40.988Z,99775.44
2023-04-23T21:09:11.682Z,99774.71
2023-04-23T21:11:42.555Z,99780.43
2023-04-23T21:14:11.758Z,99777.68
2023-04-23T21:16:42.794Z,99777.96
2023-04-23T21:19:13.455Z,99770.52
2023-04-23T21:21:44.274Z,99775.16
2023-04-23T21:24:13.376Z,99774.59
2023-04-23T21:26:44.194Z,99771.96
2023-04-23T21:29:14.878Z,99770.56
2023-04-23T21:31:48.370Z,99772.45
2023-04-23T21:34:19.384Z,99772.00
2023-04-23T21:36:50.434Z,99771.23
2023-04-23T21:39:19.526Z,99770.73
2023-04-23T21:41:50.196Z,99768.56
2023-04-23T21:44:20.932Z,99769.50
2023-04-23T21:46:51.658Z,99766.13
2023-04-23T21:49:22.430Z,99765.41
2023-04-23T21:51:53.070Z,99765.92
2023-04-23T21:54:23.792Z,99766.34
2023-04-23T21:56:54.660Z,99762.05
2023-04-23T21:59:23.761Z,99762.44
2023-04-23T22:01:54.879Z,99759.33
2023-04-23T22:04:25.783Z,99759.46
2023-04-23T22:07:17.341Z,99757.64
2023-04-23T22:09:48.055Z,99756.63
2023-04-23T22:12:18.737Z,99755.82
2023-04-23T22:14:49.541Z,99754.25
2023-04-23T22:17:20.257Z,99748.48
2023-04-23T22:19:50.969Z,99746.23
2023-04-23T22:22:21.691Z,99740.80
2023-04-23T22:24:52.385Z,99739.60
2023-04-23T22:27:23.105Z,99739.02
2023-04-23T22:29:53.757Z,99735.48
2023-04-23T22:32:24.403Z,99727.23
2023-04-23T22:34:55.395Z,99727.10
2023-04-23T22:37:26.210Z,99727.96
2023-04-23T22:39:56.999Z,99727.27
2023-04-23T22:42:27.886Z,99727.67
2023-04-23T22:44:57.297Z,99727.48
2023-04-23T22:47:28.409Z,99727.34
2023-04-23T22:49:59.304Z,99722.67
2023-04-23T22:52:28.430Z,99725.56
2023-04-23T22:54:59.128Z,99723.77
2023-04-23T22:57:30.163Z,99724.85
2023-04-23T23:00:01.577Z,99719.38
2023-04-23T23:02:32.365Z,99714.38
2023-04-23T23:05:03.193Z,99713.41
2023-04-23T23:07:33.772Z,99709.38
2023-04-23T23:10:07.113Z,99706.68
2023-04-23T23:12:38.325Z,99706.23
2023-04-23T23:15:10.898Z,99703.14
2023-04-23T23:17:41.597Z,99697.64
2023-04-23T23:20:12.971Z,99694.25
2023-04-23T23:22:43.770Z,99691.14
2023-04-23T23:25:14.505Z,99687.27
2023-04-23T23:27:45.181Z,99689.05
2023-04-23T23:30:15.986Z,99680.88
2023-04-23T23:32:47.239Z,99677.84
2023-04-23T23:35:18.168Z,99671.21
2023-04-23T23:37:48.813Z,99675.99
2023-04-23T23:40:20.040Z,99683.38
2023-04-23T23:42:50.658Z,99681.44
2023-04-23T23:45:21.354Z,99673.34
2023-04-23T23:47:52.309Z,99666.52
2023-04-23T23:50:23.396Z,99664.56
2023-04-23T23:52:52.477Z,99666.98
2023-04-23T23:55:23.124Z,99663.06
2023-04-23T23:57:53.779Z,99666.56
